Time;durP1;ratioP1;P1;durP2;ratioP2;P2;SDS_P1;SDS_P2;PMS_P1;PMS_P2;Temp;Humidity;BMP_temperature;BMP_pressure;BME280_temperature;BME280_humidity;BME280_pressure;Samples;Min_cycle;Max_cycle;Signal;HPM_P1;HPM_P2
2021/08/19 00:00:50;;;;;;;;;;;17.00;99.90;;;;;;5148112;27;19923;-67
2021/08/19 00:03:40;;;;;;;;;;;17.00;99.90;;;;;;5150811;27;19976;-69
2021/08/19 00:06:29;;;;;;;;;;;17.00;99.90;;;;;;5148911;27;19924;-69
2021/08/19 00:09:18;;;;;;;;;;;17.10;99.90;;;;;;5147624;27;19986;-69
2021/08/19 00:12:08;;;;;;;;;;;17.00;99.90;;;;;;5132139;27;19953;-67
2021/08/19 00:14:57;;;;;;;;;;;17.10;99.90;;;;;;5147674;27;19924;-69
2021/08/19 00:17:45;;;;;;;;;;;17.10;99.90;;;;;;5107442;28;20026;-68
2021/08/19 00:20:36;;;;;;;;;;;17.00;99.90;;;;;;5106377;28;19995;-67
2021/08/19 00:23:24;;;;;;;;;;;17.00;99.90;;;;;;5105468;28;19928;-67
2021/08/19 00:26:16;;;;;;;;;;;17.00;99.90;;;;;;5104803;28;20011;-67
2021/08/19 00:29:05;;;;;;;;;;;17.00;99.90;;;;;;5106267;28;19973;-67
2021/08/19 00:31:54;;;;;;;;;;;17.00;99.90;;;;;;5125542;27;20303;-66
2021/08/19 00:34:43;;;;;;;;;;;17.00;99.90;;;;;;5142742;27;19923;-69
2021/08/19 00:37:33;;;;;;;;;;;17.00;99.90;;;;;;5145296;27;19930;-67
2021/08/19 00:40:21;;;;;;;;;;;17.00;99.90;;;;;;5147946;27;19923;-67
2021/08/19 00:43:10;;;;;;;;;;;16.90;99.90;;;;;;5145752;27;19931;-67
2021/08/19 00:45:58;;;;;;;;;;;16.90;99.90;;;;;;5135186;27;19928;-66
2021/08/19 00:48:47;;;;;;;;;;;16.90;99.90;;;;;;5133840;27;19923;-66
2021/08/19 00:51:36;;;;;;;;;;;16.90;99.90;;;;;;5144515;27;19923;-67
2021/08/19 00:54:27;;;;;;;;;;;16.90;99.90;;;;;;5142744;27;19984;-66
2021/08/19 00:57:20;;;;;;;;;;;16.90;99.90;;;;;;5133267;27;20065;-67
2021/08/19 01:00:09;;;;;;;;;;;16.90;99.90;;;;;;5128124;27;19928;-66
2021/08/19 01:02:59;;;;;;;;;;;16.90;99.90;;;;;;5133267;27;19927;-68
2021/08/19 01:05:48;;;;;;;;;;;16.90;99.90;;;;;;5133303;27;19927;-68
2021/08/19 01:08:39;;;;;;;;;;;16.90;99.90;;;;;;5133127;27;19958;-66
2021/08/19 01:11:30;;;;;;;;;;;16.90;99.90;;;;;;5133209;27;19931;-66
2021/08/19 01:14:19;;;;;;;;;;;16.80;99.90;;;;;;5139318;27;19982;-67
2021/08/19 01:17:08;;;;;;;;;;;16.90;99.90;;;;;;5096505;27;19932;-67
2021/08/19 01:19:58;;;;;;;;;;;16.80;99.90;;;;;;5087795;28;19931;-67
2021/08/19 01:22:47;;;;;;;;;;;16.80;99.90;;;;;;5096739;28;19930;-67
2021/08/19 01:25:39;;;;;;;;;;;16.80;99.90;;;;;;5098503;28;20379;-67
2021/08/19 01:28:29;;;;;;;;;;;16.80;99.90;;;;;;5096056;28;19928;-67
2021/08/19 01:31:25;;;;;;;;;;;16.80;99.90;;;;;;5071790;28;19931;-67
2021/08/19 01:34:13;;;;;;;;;;;16.80;99.90;;;;;;5092118;28;19979;-66
2021/08/19 01:37:03;;;;;;;;;;;16.80;99.90;;;;;;5091380;28;19928;-66
2021/08/19 01:39:52;;;;;;;;;;;16.70;99.90;;;;;;5076742;28;19931;-66
2021/08/19 01:42:42;;;;;;;;;;;16.80;99.90;;;;;;5091994;28;19935;-67
2021/08/19 01:45:32;;;;;;;;;;;16.80;99.90;;;;;;5086091;28;20449;-69
2021/08/19 01:48:22;;;;;;;;;;;16.70;99.90;;;;;;5091660;28;20017;-66
2021/08/19 01:51:16;;;;;;;;;;;16.80;99.90;;;;;;5091084;28;19925;-66
2021/08/19 01:54:05;;;;;;;;;;;16.70;99.90;;;;;;5092039;28;19949;-66
2021/08/19 01:56:53;;;;;;;;;;;16.70;99.90;;;;;;5076820;28;19935;-69
2021/08/19 01:59:42;;;;;;;;;;;16.70;99.90;;;;;;5091744;28;19935;-66
2021/08/19 02:02:31;;;;;;;;;;;16.70;99.90;;;;;;5088697;28;20333;-66
2021/08/19 02:05:20;;;;;;;;;;;16.70;99.90;;;;;;5090601;28;19935;-66
2021/08/19 02:08:10;;;;;;;;;;;16.70;99.90;;;;;;5091397;28;19942;-66
2021/08/19 02:10:59;;;;;;;;;;;16.70;99.90;;;;;;5089924;28;19934;-66
2021/08/19 02:13:48;;;;;;;;;;;16.70;99.90;;;;;;5092012;28;20394;-67
2021/08/19 02:19:51;;;;;;;;;;;16.70;99.90;;;;;;5078641;28;19935;-67
2021/08/19 02:22:40;;;;;;;;;;;16.60;99.90;;;;;;5094473;28;19961;-66
2021/08/19 02:25:29;;;;;;;;;;;16.60;99.90;;;;;;5092971;28;19945;-67
2021/08/19 02:28:18;;;;;;;;;;;16.60;99.90;;;;;;5096564;28;19978;-67
2021/08/19 02:31:06;;;;;;;;;;;16.60;99.90;;;;;;5110939;27;19942;-67
2021/08/19 02:33:55;;;;;;;;;;;16.60;99.90;;;;;;5143605;27;19939;-67
2021/08/19 02:36:45;;;;;;;;;;;16.50;99.90;;;;;;5157114;27;19940;-67
2021/08/19 02:39:33;;;;;;;;;;;16.40;99.90;;;;;;5157527;27;19950;-67
2021/08/19 02:42:22;;;;;;;;;;;16.50;99.90;;;;;;5121218;27;19934;-66
2021/08/19 02:45:12;;;;;;;;;;;16.50;99.90;;;;;;5114687;27;20028;-66
2021/08/19 02:48:00;;;;;;;;;;;16.50;99.90;;;;;;5134597;27;20707;-69
2021/08/19 02:50:49;;;;;;;;;;;16.50;99.90;;;;;;5135940;27;19938;-66
2021/08/19 02:53:39;;;;;;;;;;;16.50;99.90;;;;;;5136380;27;19934;-65
2021/08/19 02:56:27;;;;;;;;;;;16.50;99.90;;;;;;5135614;27;20378;-66
2021/08/19 02:59:16;;;;;;;;;;;16.60;99.90;;;;;;5134790;27;19950;-66
2021/08/19 03:02:04;;;;;;;;;;;16.50;99.90;;;;;;5128510;27;19964;-66
2021/08/19 03:04:57;;;;;;;;;;;16.50;99.90;;;;;;5134128;27;19934;-66
2021/08/19 03:07:46;;;;;;;;;;;16.40;99.90;;;;;;5135073;27;19934;-66
2021/08/19 03:10:37;;;;;;;;;;;16.40;99.90;;;;;;5135408;27;19934;-66
2021/08/19 03:13:25;;;;;;;;;;;16.40;99.90;;;;;;5119454;27;19941;-67
2021/08/19 03:16:14;;;;;;;;;;;16.50;99.90;;;;;;5110613;27;19959;-66
2021/08/19 03:19:03;;;;;;;;;;;16.40;99.90;;;;;;5093322;28;20088;-67
2021/08/19 03:21:52;;;;;;;;;;;16.50;99.90;;;;;;5093553;28;19982;-68
2021/08/19 03:24:42;;;;;;;;;;;16.50;99.90;;;;;;5093802;28;20306;-69
2021/08/19 03:27:32;;;;;;;;;;;16.50;99.90;;;;;;5093033;28;19945;-66
2021/08/19 03:30:21;;;;;;;;;;;16.50;99.90;;;;;;5082875;28;19935;-66
2021/08/19 03:33:09;;;;;;;;;;;16.40;99.90;;;;;;5093335;28;20459;-66
2021/08/19 03:35:58;;;;;;;;;;;16.40;99.90;;;;;;5099370;28;19960;-67
2021/08/19 03:39:03;;;;;;;;;;;16.40;99.90;;;;;;5129894;28;20436;-67
2021/08/19 03:41:52;;;;;;;;;;;16.40;99.90;;;;;;5112800;28;20008;-66
2021/08/19 03:44:42;;;;;;;;;;;16.40;99.90;;;;;;5093388;28;19938;-66
2021/08/19 03:47:31;;;;;;;;;;;16.40;99.90;;;;;;5112007;28;19960;-67
2021/08/19 03:50:19;;;;;;;;;;;16.40;99.90;;;;;;5113137;28;19945;-66
2021/08/19 03:53:08;;;;;;;;;;;16.40;99.90;;;;;;5113094;28;19934;-69
2021/08/19 03:55:57;;;;;;;;;;;16.40;99.90;;;;;;5113858;28;19984;-66
2021/08/19 03:58:45;;;;;;;;;;;16.40;99.90;;;;;;5113384;28;20003;-66
2021/08/19 04:01:36;;;;;;;;;;;16.40;99.90;;;;;;5095953;28;20580;-67
2021/08/19 04:04:25;;;;;;;;;;;16.40;99.90;;;;;;5092576;28;19935;-66
2021/08/19 04:07:13;;;;;;;;;;;16.40;99.90;;;;;;5093461;28;19935;-66
2021/08/19 04:10:03;;;;;;;;;;;16.40;99.90;;;;;;5092783;28;19935;-65
2021/08/19 04:12:52;;;;;;;;;;;16.40;99.90;;;;;;5079360;28;19966;-66
2021/08/19 04:15:41;;;;;;;;;;;16.40;99.90;;;;;;5080611;28;19959;-67
2021/08/19 04:18:31;;;;;;;;;;;16.30;99.90;;;;;;5094506;28;20497;-67
2021/08/19 04:21:20;;;;;;;;;;;16.40;99.90;;;;;;5094989;28;19941;-67
2021/08/19 04:24:09;;;;;;;;;;;16.30;99.90;;;;;;5092524;28;19941;-67
2021/08/19 04:26:58;;;;;;;;;;;16.30;99.90;;;;;;5096513;28;19960;-66
2021/08/19 04:29:47;;;;;;;;;;;16.30;99.90;;;;;;5111458;28;19962;-66
2021/08/19 04:32:36;;;;;;;;;;;16.30;99.90;;;;;;5110180;28;20000;-68
2021/08/19 04:35:30;;;;;;;;;;;16.30;99.90;;;;;;5097930;28;19934;-67
2021/08/19 04:38:18;;;;;;;;;;;16.30;99.90;;;;;;5114814;28;19982;-67
2021/08/19 04:41:07;;;;;;;;;;;16.30;99.90;;;;;;5114371;28;20255;-67
2021/08/19 04:43:55;;;;;;;;;;;16.30;99.90;;;;;;5113698;28;20013;-67
2021/08/19 04:46:43;;;;;;;;;;;16.30;99.90;;;;;;5121456;28;19946;-67
2021/08/19 04:49:32;;;;;;;;;;;16.40;99.90;;;;;;5134409;28;19941;-67
2021/08/19 04:52:22;;;;;;;;;;;16.30;99.90;;;;;;5131940;28;19956;-68
2021/08/19 04:55:10;;;;;;;;;;;16.40;99.90;;;;;;5106430;28;19958;-68
2021/08/19 04:57:58;;;;;;;;;;;16.40;99.90;;;;;;5100404;28;19977;-64
2021/08/19 05:00:47;;;;;;;;;;;16.40;99.90;;;;;;5086179;28;19955;-64
2021/08/19 05:03:35;;;;;;;;;;;16.40;99.90;;;;;;5080734;28;19942;-66
2021/08/19 05:06:25;;;;;;;;;;;16.40;99.90;;;;;;5075408;28;19990;-65
2021/08/19 05:09:15;;;;;;;;;;;16.40;99.90;;;;;;5069219;28;19936;-65
2021/08/19 05:12:05;;;;;;;;;;;16.40;99.90;;;;;;5086765;28;19966;-65
2021/08/19 05:14:53;;;;;;;;;;;16.40;99.90;;;;;;5092415;28;19939;-65
2021/08/19 05:17:43;;;;;;;;;;;16.40;99.90;;;;;;5124832;28;19934;-64
2021/08/19 05:20:32;;;;;;;;;;;16.40;99.90;;;;;;5115939;28;19976;-66
2021/08/19 05:23:21;;;;;;;;;;;16.50;99.90;;;;;;5128248;28;19944;-65
2021/08/19 05:26:14;;;;;;;;;;;16.50;99.90;;;;;;5119017;28;19918;-65
2021/08/19 05:29:28;;;;;;;;;;;16.50;99.90;;;;;;5119021;28;19935;-65
2021/08/19 05:32:17;;;;;;;;;;;16.50;99.90;;;;;;5104682;28;19957;-65
2021/08/19 05:35:06;;;;;;;;;;;16.60;99.90;;;;;;5098203;28;20310;-65
2021/08/19 05:37:55;;;;;;;;;;;16.60;99.90;;;;;;5112162;28;19938;-65
2021/08/19 05:40:43;;;;;;;;;;;16.60;99.90;;;;;;5111576;28;20015;-64
2021/08/19 05:43:33;;;;;;;;;;;16.60;99.90;;;;;;5090669;28;20019;-64
2021/08/19 05:46:21;;;;;;;;;;;16.60;99.90;;;;;;5095661;28;19965;-65
2021/08/19 05:49:10;;;;;;;;;;;16.60;99.90;;;;;;5111449;28;19938;-69
2021/08/19 05:51:59;;;;;;;;;;;16.60;99.90;;;;;;5111355;28;19965;-63
2021/08/19 05:54:47;;;;;;;;;;;16.70;99.90;;;;;;5112335;28;19958;-63
2021/08/19 05:57:35;;;;;;;;;;;16.70;99.90;;;;;;5112797;28;19934;-62
2021/08/19 06:00:25;;;;;;;;;;;16.80;99.90;;;;;;5102342;28;20329;-62
2021/08/19 06:03:14;;;;;;;;;;;16.80;99.90;;;;;;5116427;28;19934;-61
2021/08/19 06:06:04;;;;;;;;;;;16.80;99.90;;;;;;5116467;28;19951;-61
2021/08/19 06:08:53;;;;;;;;;;;16.90;99.90;;;;;;5114157;28;19942;-62
2021/08/19 06:11:42;;;;;;;;;;;16.90;99.90;;;;;;5115676;28;19958;-61
2021/08/19 06:14:33;;;;;;;;;;;17.00;99.90;;;;;;5116150;28;19942;-62
2021/08/19 06:17:24;;;;;;;;;;;17.00;99.90;;;;;;5109030;28;19958;-62
2021/08/19 06:20:13;;;;;;;;;;;17.00;99.90;;;;;;5114680;28;20028;-62
2021/08/19 06:23:02;;;;;;;;;;;17.00;99.90;;;;;;5136097;28;20006;-61
2021/08/19 06:25:51;;;;;;;;;;;17.10;99.90;;;;;;5119047;28;20385;-61
2021/08/19 06:28:41;;;;;;;;;;;17.10;99.90;;;;;;5116111;28;19934;-62
2021/08/19 06:31:31;;;;;;;;;;;17.20;99.90;;;;;;5104870;28;19958;-62
2021/08/19 06:34:23;;;;;;;;;;;17.40;99.90;;;;;;5116670;28;19935;-64
2021/08/19 06:37:12;;;;;;;;;;;17.40;99.90;;;;;;5114866;28;19945;-66
2021/08/19 06:40:07;;;;;;;;;;;17.50;99.90;;;;;;5099994;28;19950;-65
2021/08/19 06:42:55;;;;;;;;;;;17.40;99.90;;;;;;5106712;28;19946;-65
2021/08/19 06:45:44;;;;;;;;;;;17.30;99.90;;;;;;5109595;28;20367;-64
2021/08/19 06:48:32;;;;;;;;;;;17.20;99.90;;;;;;5115258;28;20060;-65
2021/08/19 06:51:24;;;;;;;;;;;17.30;99.90;;;;;;5115134;28;19941;-64
2021/08/19 06:54:12;;;;;;;;;;;17.40;99.90;;;;;;5113930;28;19961;-67
2021/08/19 06:57:04;;;;;;;;;;;17.70;99.90;;;;;;5114323;28;19939;-62
2021/08/19 06:59:52;;;;;;;;;;;17.90;99.90;;;;;;5115532;28;20410;-64
2021/08/19 07:02:41;;;;;;;;;;;18.00;99.90;;;;;;5095290;28;19958;-64
2021/08/19 07:05:30;;;;;;;;;;;18.20;99.90;;;;;;5094737;28;19931;-66
2021/08/19 07:08:21;;;;;;;;;;;18.30;99.90;;;;;;5112977;28;19992;-65
2021/08/19 07:11:12;;;;;;;;;;;18.30;99.90;;;;;;5110741;28;20012;-66
2021/08/19 07:14:03;;;;;;;;;;;18.30;99.90;;;;;;5111646;28;19935;-66
2021/08/19 07:16:52;;;;;;;;;;;18.40;99.90;;;;;;5122389;28;19993;-67
2021/08/19 07:19:41;;;;;;;;;;;18.40;99.90;;;;;;5135581;28;19946;-66
2021/08/19 07:22:29;;;;;;;;;;;18.50;99.90;;;;;;5107233;28;19989;-67
2021/08/19 07:25:24;;;;;;;;;;;18.60;99.90;;;;;;5114356;28;19924;-65
2021/08/19 07:28:12;;;;;;;;;;;18.60;99.90;;;;;;5115115;28;19924;-65
2021/08/19 07:31:10;;;;;;;;;;;18.60;99.90;;;;;;5093318;28;20287;-65
2021/08/19 07:33:59;;;;;;;;;;;18.50;99.90;;;;;;5103429;27;20417;-65
2021/08/19 07:36:47;;;;;;;;;;;18.50;99.90;;;;;;5134288;27;19964;-65
2021/08/19 07:39:36;;;;;;;;;;;18.40;99.90;;;;;;5128167;27;19975;-66
2021/08/19 07:42:26;;;;;;;;;;;18.50;99.90;;;;;;5095730;28;20075;-65
2021/08/19 07:45:15;;;;;;;;;;;18.70;99.90;;;;;;5089597;28;19962;-65
2021/08/19 07:48:07;;;;;;;;;;;18.70;99.90;;;;;;5113456;28;19924;-65
2021/08/19 07:50:56;;;;;;;;;;;18.90;99.90;;;;;;5113797;28;19928;-65
2021/08/19 07:53:45;;;;;;;;;;;19.20;99.90;;;;;;5114756;28;19934;-65
2021/08/19 07:56:33;;;;;;;;;;;19.50;99.90;;;;;;5114182;28;19930;-66
2021/08/19 07:59:23;;;;;;;;;;;19.50;99.90;;;;;;5109885;28;19924;-66
2021/08/19 08:02:12;;;;;;;;;;;19.60;99.90;;;;;;5095200;28;19924;-66
2021/08/19 08:05:01;;;;;;;;;;;19.30;99.90;;;;;;5116597;28;20386;-65
2021/08/19 08:07:50;;;;;;;;;;;19.00;99.90;;;;;;5101347;28;19931;-65
2021/08/19 08:10:42;;;;;;;;;;;18.80;99.90;;;;;;5095184;28;20011;-65
2021/08/19 08:13:31;;;;;;;;;;;18.70;99.90;;;;;;5097066;28;20292;-65
2021/08/19 08:16:21;;;;;;;;;;;18.80;99.90;;;;;;5099148;28;19930;-68
2021/08/19 08:19:10;;;;;;;;;;;19.20;99.90;;;;;;5108870;28;19924;-65
2021/08/19 08:22:00;;;;;;;;;;;19.00;99.90;;;;;;5115157;28;20371;-65
2021/08/19 08:24:49;;;;;;;;;;;18.70;99.90;;;;;;5113983;28;20406;-65
2021/08/19 08:27:39;;;;;;;;;;;18.40;99.90;;;;;;5112961;28;19930;-64
2021/08/19 08:30:28;;;;;;;;;;;17.90;99.90;;;;;;5108874;28;19925;-64
2021/08/19 08:33:20;;;;;;;;;;;17.60;99.90;;;;;;5112482;28;20085;-65
2021/08/19 08:36:09;;;;;;;;;;;17.70;99.90;;;;;;5112883;28;19924;-64
2021/08/19 08:38:58;;;;;;;;;;;18.00;99.90;;;;;;5112328;28;19923;-65
2021/08/19 08:41:49;;;;;;;;;;;18.90;99.90;;;;;;5113417;28;19931;-65
2021/08/19 08:44:39;;;;;;;;;;;19.90;99.90;;;;;;5112926;28;19924;-65
2021/08/19 08:47:32;;;;;;;;;;;20.90;99.90;;;;;;5113159;28;20498;-65
2021/08/19 08:50:24;;;;;;;;;;;21.20;99.90;;;;;;5113824;28;19965;-64
2021/08/19 08:53:14;;;;;;;;;;;21.30;99.90;;;;;;5113234;28;19983;-65
2021/08/19 08:56:03;;;;;;;;;;;21.30;99.90;;;;;;5112996;28;19935;-65
2021/08/19 08:58:52;;;;;;;;;;;20.90;99.90;;;;;;5114159;28;19931;-64
2021/08/19 09:01:40;;;;;;;;;;;20.60;99.90;;;;;;5102758;28;19924;-64
2021/08/19 09:04:29;;;;;;;;;;;20.10;99.90;;;;;;5113935;28;19946;-64
2021/08/19 09:07:31;;;;;;;;;;;19.40;99.90;;;;;;5128979;28;19924;-66
2021/08/19 09:10:22;;;;;;;;;;;19.10;99.90;;;;;;5115956;28;19930;-64
2021/08/19 09:13:36;;;;;;;;;;;18.90;99.90;;;;;;5112517;28;19967;-65
2021/08/19 09:16:24;;;;;;;;;;;19.40;99.90;;;;;;5106183;28;19924;-64
2021/08/19 09:19:14;;;;;;;;;;;20.10;99.90;;;;;;5112367;28;20010;-65
2021/08/19 09:22:04;;;;;;;;;;;20.70;99.90;;;;;;5111390;28;19924;-64
2021/08/19 09:24:55;;;;;;;;;;;20.70;99.90;;;;;;5111563;28;19931;-64
2021/08/19 09:27:47;;;;;;;;;;;21.50;99.90;;;;;;5114637;28;19930;-68
2021/08/19 09:30:36;;;;;;;;;;;22.20;99.90;;;;;;5107296;28;19930;-65
2021/08/19 09:33:26;;;;;;;;;;;22.50;99.90;;;;;;5113676;28;19965;-65
2021/08/19 09:36:16;;;;;;;;;;;26.50;97.70;;;;;;5124036;28;19930;-65
2021/08/19 09:39:05;;;;;;;;;;;24.70;99.80;;;;;;5119448;28;19946;-65
2021/08/19 09:41:55;;;;;;;;;;;22.60;99.90;;;;;;5111371;28;20329;-65
2021/08/19 09:44:45;;;;;;;;;;;21.60;99.90;;;;;;5111529;28;19924;-66
2021/08/19 09:47:34;;;;;;;;;;;22.10;99.90;;;;;;5091173;28;19931;-65
2021/08/19 09:50:23;;;;;;;;;;;22.70;99.90;;;;;;5091322;28;19932;-65
2021/08/19 09:53:17;;;;;;;;;;;22.20;99.90;;;;;;5092020;28;19931;-65
2021/08/19 09:56:11;;;;;;;;;;;21.70;99.90;;;;;;5082882;28;19935;-65
2021/08/19 09:59:14;;;;;;;;;;;21.90;99.90;;;;;;5092108;28;19935;-65
2021/08/19 10:02:05;;;;;;;;;;;21.90;99.90;;;;;;5101899;28;20387;-64
2021/08/19 10:04:58;;;;;;;;;;;21.50;99.90;;;;;;5111781;28;20009;-65
2021/08/19 10:07:49;;;;;;;;;;;21.10;99.90;;;;;;5098115;28;19928;-65
2021/08/19 10:10:39;;;;;;;;;;;20.80;99.90;;;;;;5096012;28;20269;-64
2021/08/19 10:13:28;;;;;;;;;;;20.70;99.90;;;;;;5092144;28;19924;-64
2021/08/19 10:16:17;;;;;;;;;;;20.30;99.90;;;;;;5084925;28;20393;-64
2021/08/19 10:19:08;;;;;;;;;;;19.90;99.90;;;;;;5093235;28;19924;-64
2021/08/19 10:21:58;;;;;;;;;;;19.80;99.90;;;;;;5091585;28;19931;-67
2021/08/19 10:24:51;;;;;;;;;;;19.60;99.90;;;;;;5090820;28;20380;-65
2021/08/19 10:27:46;;;;;;;;;;;19.50;99.90;;;;;;5090058;28;19931;-65
2021/08/19 10:30:45;;;;;;;;;;;19.70;99.90;;;;;;5084105;28;19939;-65
2021/08/19 10:33:44;;;;;;;;;;;20.10;99.90;;;;;;5091586;28;20452;-65
2021/08/19 10:36:54;;;;;;;;;;;20.60;99.90;;;;;;5092332;28;19924;-65
2021/08/19 10:39:51;;;;;;;;;;;20.90;99.90;;;;;;5091761;28;20345;-64
2021/08/19 10:42:39;;;;;;;;;;;21.40;99.90;;;;;;5090377;28;19928;-65
2021/08/19 10:45:41;;;;;;;;;;;21.40;99.90;;;;;;5089556;28;19931;-65
2021/08/19 10:48:41;;;;;;;;;;;21.10;99.90;;;;;;5113333;28;19935;-66
2021/08/19 10:51:29;;;;;;;;;;;20.80;99.90;;;;;;5115910;28;20391;-64
2021/08/19 10:54:35;;;;;;;;;;;20.70;99.90;;;;;;5101246;28;19934;-67
2021/08/19 10:57:30;;;;;;;;;;;20.80;99.90;;;;;;5114267;28;19934;-65
2021/08/19 11:00:34;;;;;;;;;;;21.20;99.90;;;;;;5110319;28;19956;-65
2021/08/19 11:03:41;;;;;;;;;;;21.20;99.90;;;;;;5114381;28;19924;-65
2021/08/19 11:06:45;;;;;;;;;;;21.30;99.90;;;;;;5114482;28;19923;-68
2021/08/19 11:09:36;;;;;;;;;;;21.20;99.90;;;;;;5115462;28;19923;-65
2021/08/19 11:12:25;;;;;;;;;;;21.20;99.90;;;;;;5115687;28;20446;-65
2021/08/19 11:15:14;;;;;;;;;;;21.20;99.90;;;;;;5107463;28;19954;-65
2021/08/19 11:18:03;;;;;;;;;;;21.20;99.90;;;;;;5114003;28;20290;-65
2021/08/19 11:20:52;;;;;;;;;;;21.20;99.90;;;;;;5114039;28;19931;-65
2021/08/19 11:23:43;;;;;;;;;;;20.90;99.90;;;;;;5113702;28;20287;-66
2021/08/19 11:26:33;;;;;;;;;;;20.70;99.90;;;;;;5114613;28;19931;-65
2021/08/19 11:29:27;;;;;;;;;;;20.40;99.90;;;;;;5114202;28;20367;-65
2021/08/19 11:32:17;;;;;;;;;;;20.20;99.90;;;;;;5107927;28;20302;-66
2021/08/19 11:35:06;;;;;;;;;;;20.10;99.90;;;;;;5114991;28;19931;-68
2021/08/19 11:38:08;;;;;;;;;;;20.20;99.90;;;;;;5113154;28;19930;-65
2021/08/19 11:40:57;;;;;;;;;;;20.20;99.90;;;;;;5098294;28;20188;-65
2021/08/19 11:43:47;;;;;;;;;;;20.20;99.90;;;;;;5113502;28;19924;-65
2021/08/19 11:46:37;;;;;;;;;;;20.10;99.90;;;;;;5107345;28;20398;-65
2021/08/19 11:49:25;;;;;;;;;;;20.00;99.90;;;;;;5113680;28;19923;-68
2021/08/19 11:52:13;;;;;;;;;;;20.00;99.90;;;;;;5128159;28;19946;-66
2021/08/19 11:55:06;;;;;;;;;;;20.10;99.90;;;;;;5119029;28;20016;-65
2021/08/19 11:58:13;;;;;;;;;;;20.20;99.90;;;;;;5114502;28;20375;-65
2021/08/19 12:01:05;;;;;;;;;;;20.50;99.90;;;;;;5108463;28;19923;-65
2021/08/19 12:03:53;;;;;;;;;;;20.60;99.90;;;;;;5113659;28;19947;-68
2021/08/19 12:06:43;;;;;;;;;;;20.70;99.90;;;;;;5113467;28;19951;-65
2021/08/19 12:09:33;;;;;;;;;;;20.40;99.90;;;;;;5113752;28;20303;-66
2021/08/19 12:12:25;;;;;;;;;;;20.10;99.90;;;;;;5126781;27;19955;-65
2021/08/19 12:15:17;;;;;;;;;;;19.90;99.90;;;;;;5113999;27;19923;-66
2021/08/19 12:18:09;;;;;;;;;;;19.70;99.90;;;;;;5134561;27;20335;-65
2021/08/19 12:21:15;;;;;;;;;;;19.70;99.90;;;;;;5133287;27;19924;-64
2021/08/19 12:24:14;;;;;;;;;;;19.60;99.90;;;;;;5134679;27;19923;-64
2021/08/19 12:27:06;;;;;;;;;;;19.60;99.90;;;;;;5094573;28;19928;-65
2021/08/19 12:29:57;;;;;;;;;;;19.70;99.90;;;;;;5100673;28;20264;-65
2021/08/19 12:32:59;;;;;;;;;;;19.80;99.90;;;;;;5096471;28;19938;-65
2021/08/19 12:36:07;;;;;;;;;;;20.00;99.90;;;;;;5093942;28;20421;-65
2021/08/19 12:39:13;;;;;;;;;;;20.10;99.90;;;;;;5098086;28;19932;-64
2021/08/19 12:42:06;;;;;;;;;;;20.30;99.90;;;;;;5112764;28;19928;-64
2021/08/19 12:45:05;;;;;;;;;;;20.40;99.90;;;;;;5112838;28;19930;-67
2021/08/19 12:48:00;;;;;;;;;;;20.50;99.90;;;;;;5112434;28;20264;-65
2021/08/19 12:50:48;;;;;;;;;;;20.40;99.90;;;;;;5113633;28;19923;-65
2021/08/19 12:53:59;;;;;;;;;;;20.40;99.90;;;;;;5114777;28;19930;-65
2021/08/19 12:56:58;;;;;;;;;;;20.50;99.90;;;;;;5112119;28;19930;-64
2021/08/19 12:59:46;;;;;;;;;;;20.70;99.90;;;;;;5113268;28;19930;-65
2021/08/19 13:02:35;;;;;;;;;;;20.70;99.90;;;;;;5094496;28;19963;-65
2021/08/19 13:05:26;;;;;;;;;;;21.10;99.90;;;;;;5095637;28;19982;-65
2021/08/19 13:08:15;;;;;;;;;;;21.20;99.90;;;;;;5095782;28;19931;-66
2021/08/19 13:11:08;;;;;;;;;;;21.40;99.90;;;;;;5092076;28;19983;-64
2021/08/19 13:13:57;;;;;;;;;;;21.40;99.90;;;;;;5087577;28;19947;-65
2021/08/19 13:16:45;;;;;;;;;;;21.20;99.90;;;;;;5102646;28;20014;-65
2021/08/19 13:19:34;;;;;;;;;;;21.30;99.90;;;;;;5113012;28;19930;-65
2021/08/19 13:22:23;;;;;;;;;;;21.30;99.90;;;;;;5113735;28;20363;-66
2021/08/19 13:25:12;;;;;;;;;;;21.00;99.90;;;;;;5112679;28;20392;-65
2021/08/19 13:28:02;;;;;;;;;;;20.90;99.90;;;;;;5112462;28;19924;-67
2021/08/19 13:30:52;;;;;;;;;;;20.60;99.90;;;;;;5086975;28;19936;-65
2021/08/19 13:33:40;;;;;;;;;;;20.60;99.90;;;;;;5092800;28;20451;-65
2021/08/19 13:36:30;;;;;;;;;;;20.50;99.90;;;;;;5092640;28;20371;-65
2021/08/19 13:39:20;;;;;;;;;;;20.50;99.90;;;;;;5092005;28;19924;-65
2021/08/19 13:42:09;;;;;;;;;;;20.50;99.90;;;;;;5093558;28;19924;-64
2021/08/19 13:45:02;;;;;;;;;;;20.50;99.90;;;;;;5082657;28;19939;-65
2021/08/19 13:47:51;;;;;;;;;;;20.50;99.90;;;;;;5092786;28;19924;-66
2021/08/19 13:50:39;;;;;;;;;;;20.70;99.90;;;;;;5091221;28;20385;-65
2021/08/19 13:53:29;;;;;;;;;;;20.80;99.90;;;;;;5092272;28;19924;-65
2021/08/19 13:56:17;;;;;;;;;;;20.80;99.90;;;;;;5076941;28;19947;-64
2021/08/19 13:59:06;;;;;;;;;;;20.80;99.90;;;;;;5078572;28;19931;-65
2021/08/19 14:01:55;;;;;;;;;;;20.80;99.90;;;;;;5101153;28;19930;-65
2021/08/19 14:04:44;;;;;;;;;;;21.00;99.90;;;;;;5112891;28;19923;-64
2021/08/19 14:07:33;;;;;;;;;;;20.90;99.90;;;;;;5111686;28;20018;-66
2021/08/19 14:10:22;;;;;;;;;;;20.90;99.90;;;;;;5111639;28;19928;-68
2021/08/19 14:13:36;;;;;;;;;;;21.00;99.90;;;;;;5122713;28;19993;-65
2021/08/19 14:16:26;;;;;;;;;;;20.90;99.90;;;;;;5106224;28;19946;-65
2021/08/19 14:19:16;;;;;;;;;;;20.90;99.90;;;;;;5098710;28;20037;-64
2021/08/19 14:22:05;;;;;;;;;;;20.90;99.90;;;;;;5112683;28;19927;-65
2021/08/19 14:24:54;;;;;;;;;;;21.00;99.90;;;;;;5115111;28;19924;-66
2021/08/19 14:27:47;;;;;;;;;;;20.90;99.90;;;;;;5115287;28;19924;-65
2021/08/19 14:30:38;;;;;;;;;;;20.80;99.90;;;;;;5096559;28;20335;-66
2021/08/19 14:33:26;;;;;;;;;;;20.70;99.90;;;;;;5115697;28;20378;-64
2021/08/19 14:36:16;;;;;;;;;;;20.60;99.90;;;;;;5127284;28;19930;-64
2021/08/19 14:39:08;;;;;;;;;;;20.50;99.90;;;;;;5124669;28;19930;-65
2021/08/19 14:41:56;;;;;;;;;;;20.40;99.90;;;;;;5101959;28;19981;-65
2021/08/19 14:44:46;;;;;;;;;;;20.40;99.90;;;;;;5116081;28;19931;-65
2021/08/19 14:47:34;;;;;;;;;;;20.30;99.90;;;;;;5110090;28;19924;-67
2021/08/19 14:50:23;;;;;;;;;;;20.10;99.90;;;;;;5116312;28;20387;-65
2021/08/19 14:53:13;;;;;;;;;;;20.00;99.90;;;;;;5115874;28;20002;-67
2021/08/19 14:56:02;;;;;;;;;;;20.00;99.90;;;;;;5126206;28;19930;-66
2021/08/19 14:58:53;;;;;;;;;;;19.90;99.90;;;;;;5135881;28;19923;-65
2021/08/19 15:01:42;;;;;;;;;;;19.90;99.90;;;;;;5129610;28;19907;-65
2021/08/19 15:04:30;;;;;;;;;;;19.90;99.90;;;;;;5135486;28;19923;-67
2021/08/19 15:07:19;;;;;;;;;;;20.00;99.90;;;;;;5135205;28;19924;-65
2021/08/19 15:10:10;;;;;;;;;;;20.10;99.90;;;;;;5135279;28;19916;-65
2021/08/19 15:12:59;;;;;;;;;;;20.20;99.90;;;;;;5136590;28;19931;-65
2021/08/19 15:15:47;;;;;;;;;;;20.30;99.90;;;;;;5129424;28;19987;-65
2021/08/19 15:18:37;;;;;;;;;;;20.30;99.90;;;;;;5137215;28;19907;-66
2021/08/19 15:21:26;;;;;;;;;;;20.30;99.90;;;;;;5135329;28;19942;-65
2021/08/19 15:24:15;;;;;;;;;;;20.30;99.90;;;;;;5137019;28;19924;-67
2021/08/19 15:27:06;;;;;;;;;;;20.40;99.90;;;;;;5135236;28;19924;-65
2021/08/19 15:29:58;;;;;;;;;;;20.40;99.90;;;;;;5137082;28;20017;-67
2021/08/19 15:32:47;;;;;;;;;;;20.40;99.90;;;;;;5116119;28;19946;-65
2021/08/19 15:35:37;;;;;;;;;;;20.40;99.90;;;;;;5115360;28;19924;-65
2021/08/19 15:38:26;;;;;;;;;;;20.50;99.90;;;;;;5115234;28;19931;-66
2021/08/19 15:41:16;;;;;;;;;;;20.50;99.90;;;;;;5117139;28;19930;-65
2021/08/19 15:44:06;;;;;;;;;;;20.40;99.90;;;;;;5115298;28;19908;-66
2021/08/19 15:46:54;;;;;;;;;;;20.60;99.90;;;;;;5126168;28;19924;-65
2021/08/19 15:49:43;;;;;;;;;;;20.60;99.90;;;;;;5136047;28;19937;-66
2021/08/19 15:52:31;;;;;;;;;;;20.60;99.90;;;;;;5121966;28;19924;-65
2021/08/19 15:55:20;;;;;;;;;;;20.70;99.90;;;;;;5127920;28;19930;-65
2021/08/19 15:58:09;;;;;;;;;;;20.60;99.90;;;;;;5114628;28;19938;-65
2021/08/19 16:00:59;;;;;;;;;;;20.70;99.90;;;;;;5100622;28;19923;-64
2021/08/19 16:03:49;;;;;;;;;;;20.70;99.90;;;;;;5094019;28;19924;-64
2021/08/19 16:06:39;;;;;;;;;;;20.70;99.90;;;;;;5095002;28;19931;-64
2021/08/19 16:09:28;;;;;;;;;;;20.70;99.90;;;;;;5093494;28;19994;-65
2021/08/19 16:12:17;;;;;;;;;;;20.60;99.90;;;;;;5093123;28;19924;-64
2021/08/19 16:15:06;;;;;;;;;;;20.60;99.90;;;;;;5088301;28;19950;-67
2021/08/19 16:17:55;;;;;;;;;;;20.60;99.90;;;;;;5113005;28;19924;-65
2021/08/19 16:20:44;;;;;;;;;;;20.40;99.90;;;;;;5113102;28;19931;-65
2021/08/19 16:23:33;;;;;;;;;;;20.50;99.90;;;;;;5112563;28;19927;-64
2021/08/19 16:26:22;;;;;;;;;;;20.60;99.90;;;;;;5113698;28;19924;-65
2021/08/19 16:29:11;;;;;;;;;;;20.60;99.90;;;;;;5113857;28;19924;-67
2021/08/19 16:32:00;;;;;;;;;;;20.60;99.90;;;;;;5093443;28;20257;-66
2021/08/19 16:34:50;;;;;;;;;;;20.60;99.90;;;;;;5094461;28;19924;-69